Weerspreuk van de dag: Danst het lammetje in maart, april pakt het bij de staart.
Het weer levert geen direct gevaar op.    Er zijn geen waarschuwingen afgegeven.

Onweer radar Meer informatie blitzortung!


Regen radar Meer informatie rain snow radar


Bekijk deze sites ook eens:

FPL Automotive (TIP)

Autostekkers.nl (TIP)

Over Luyksgestel

De Kempen, mijn omgeving

BOL.com

Weerstation Noordbergum

Inktweb

Weerstation Hapert

Weerstation Hoogeloon

Weerstation Son&Breugel

Weerstation Castaert

Nieuw horloge

Weerstation Tilburg Reeshof

Weerstation Scheulder

Weerverwachting Samos

Samos actueel

Weerwoord (forum)

Griekenlandforum

Vakantie naar Samos

Winterzon

Canon

Wolven in Nederland



METAR rapporten vliegvelden

   
EBAW - Antwerp
Gewijzigd: 30-03-2020 21:20
Helder  
Helder  
   Wind: Noorden 13 km/h
Wind: Noorden 13 km/h
Temperatuur: 7°C
Voelt als: 4°C
Dauwpunt: 2°C
Vochtigheid: 71%
Barometer: 1028 hPa
Zicht: meer dan 10 km
Bewolking: Helder
EBAW 301920Z AUTO 35007KT 310V010 CAVOK 07/02 Q1028
EBLG - Liège
Gewijzigd: 30-03-2020 21:20
Grotendeels bewolkt  
Grotendeels bewolkt  
   Wind: NW 7.4 km/h
Wind: NW 7.4 km/h
Temperatuur: 4°C
Voelt als: 2°C
Dauwpunt: 1°C
Vochtigheid: 81%
Barometer: 1027 hPa
Bewolking: Grotendeels bewolkt
Zicht: meer dan 10 km
Bewolking: Grotendeels bewolkt 3700 ft
EBLG 301920Z 31004KT 260V350 9999 BKN037 04/01 Q1027 NOSIG
EBCV - Mons/Bergen
Gewijzigd: 30-03-2020 21:25
Grotendeels bewolkt  
Grotendeels bewolkt  
   Wind: Noorden 16.7 km/h
Wind: Noorden 16.7 km/h
Temperatuur: 5°C
Voelt als: 2°C
Dauwpunt: 1°C
Vochtigheid: 76%
Barometer: 1028 hPa
Bewolking: Grotendeels bewolkt
Zicht: meer dan 10 km
Bewolking: Grotendeels bewolkt 3500 ft
EBCV 301925Z AUTO 36009KT 9999 BKN035/// 05/01 Q1028 BLU
EHBK - Maastricht
Gewijzigd: 30-03-2020 21:25
Grotendeels bewolkt  
Grotendeels bewolkt  
   Wind: NW 7.4 km/h
Wind: NW 7.4 km/h
Temperatuur: 5°C
Voelt als: 3°C
Dauwpunt: 1°C
Vochtigheid: 76%
Barometer: 1026 hPa
Bewolking: Grotendeels bewolkt
Zicht: meer dan 10 km
Bewolking: Grotendeels bewolkt 4900 ft
EHBK 301925Z AUTO 31004KT 280V340 9999 BKN049 05/01 Q1026 NOSIG
ELLX - Luxemburg
Gewijzigd: 30-03-2020 21:20
Helder  
Helder  
   Wind: NNO 18.5 km/h
Wind: NNO 18.5 km/h
Temperatuur: 4°C
Voelt als: 0°C
Dauwpunt: -5°C
Vochtigheid: 52%
Barometer: 1025 hPa
Zicht: meer dan 10 km
Bewolking: Helder
ELLX 301920Z 03010KT CAVOK 04/M05 Q1025 NOSIG
EBOS - Oostende
Gewijzigd: 30-03-2020 21:20
Gedeeltelijk bewolkt  
Gedeeltelijk bewolkt  
   Wind: NNO 20.4 km/h
Wind: NNO 20.4 km/h
Temperatuur: 7°C
Voelt als: 3°C
Dauwpunt: 3°C
Vochtigheid: 76%
Barometer: 1029 hPa
Bewolking: Gedeeltelijk bewolkt
Zicht: meer dan 10 km
Bewolking: Licht bewolkt 1800 ft,
Gedeeltelijk bewolkt 3200 ft
EBOS 301920Z 02011KT 9999 FEW018 SCT032 07/03 Q1029 NOSIG

Script ontwikkeld door  Saratoga-weather.org Aangepast voor de template door  Weerstation Leuven

U vindt ons ook hier:

Het Weer Aktueel

UK Metoffice

European Weather Network

Weather Underground

AWEKAS